This is the latest recevied weather packets stored in our database for station/object XQ6AK-15. If no packets are shown the sender has not sent any weather packets the latest 10 day(s).
| Time | Temp. | Humidity | Pressure | Rain* | Wind** | Luminosity | Snow |
|---|---|---|---|---|---|---|---|
| 1787856175 | 9.44° C | 99% | 1002.6 hPa | 7.87 mm | - | 34 W/m² | - |
| 1787855870 | 10° C | 98% | 1002.4 hPa | 6.1 mm | - | 23 W/m² | - |
| 1787855564 | 10° C | 96% | 1002.2 hPa | 4.32 mm | - | 26 W/m² | - |
| 1787855260 | 10° C | 95% | 1002.1 hPa | 1.27 mm | - | 17 W/m² | - |
| 1787854956 | 10° C | 95% | 1002 hPa | 0 mm | - | 23 W/m² | - |
| 1787854650 | 10° C | 95% | 1001.9 hPa | 3.05 mm | - | 36 W/m² | - |
| 1787854345 | 10.56° C | 93% | 1001.8 hPa | 6.1 mm | - | 41 W/m² | - |
| 1787854039 | 12.22° C | 89% | 1002.1 hPa | 1.27 mm | - | 27 W/m² | - |
| 1787853734 | 12.78° C | 88% | 1001.7 hPa | 0 mm | - | 16 W/m² | - |
| 1787853433 | 12.78° C | 84% | 1001.3 hPa | 0 mm | - | 29 W/m² | - |
| 1787853132 | 13.33° C | 83% | 1001.2 hPa | 0 mm | - | 71 W/m² | - |
| 1787852827 | 13.33° C | 82% | 1001.4 hPa | 0 mm | - | 146 W/m² | - |
| 1787852527 | 13.33° C | 82% | 1001.3 hPa | 0 mm | - | 168 W/m² | - |
| 1787852221 | 13.33° C | 81% | 1001.3 hPa | 0 mm | - | 134 W/m² | - |
| 1787851921 | 13.33° C | 81% | 1001.3 hPa | 0 mm | - | 138 W/m² | - |
| 1787851620 | 13.33° C | 81% | 1001.2 hPa | 0 mm | - | 149 W/m² | - |
| 1787851316 | 13.33° C | 78% | 1001.1 hPa | 0 mm | - | 137 W/m² | - |
| 1787851011 | 13.33° C | 79% | 1001.3 hPa | 0 mm | - | 159 W/m² | - |
| 1787850707 | 13.33° C | 83% | 1001.1 hPa | 0 mm | - | 171 W/m² | - |
| 1787850402 | 13.33° C | 87% | 1001.3 hPa | 1.78 mm | - | 234 W/m² | - |
| 1787850097 | 12.78° C | 93% | 1001.5 hPa | 1.78 mm | - | 408 W/m² | - |
| 1787849791 | 12.78° C | 96% | 1001.5 hPa | 0 mm | - | 238 W/m² | - |
| 1787849486 | 12.78° C | 97% | 1001.6 hPa | 0 mm | - | 189 W/m² | - |
| 1787849184 | 12.78° C | 99% | 1001.5 hPa | 0 mm | - | 320 W/m² | - |
| 1787848884 | 12.22° C | 99% | 1001.7 hPa | 0 mm | - | 577 W/m² | - |
* Rain latest hour (hover to see other rain measurements)
** Current wind speed in m/s (hover to see current wind gust speed)